Time,TemperatureF,DewpointF,PressureIn,WindDirection,WindDirectionDegrees,WindSpeedMPH,WindSpeedGustMPH,Humidity,HourlyPrecipIn,Conditions,Clouds,dailyrainin,SoftwareType,DateUTC
2013-01-28 00:00:00,42.6,40.6,30.15,SW,226,3.0,3.0,92,0.00,,,0.00,VWS V14.01,2013-01-28 05:00:00,
2013-01-28 00:01:00,42.6,40.6,30.15,SSW,203,1.5,3.0,92,0.00,,,0.00,VWS V14.01,2013-01-28 05:01:00,
2013-01-28 00:04:00,42.6,40.6,30.14,SW,223,6.0,6.0,92,0.00,,,0.00,VWS V14.01,2013-01-28 05:04:00,
2013-01-28 00:09:00,42.7,40.7,30.14,South,178,3.0,4.5,92,0.00,,,0.00,VWS V14.01,2013-01-28 05:09:00,
2013-01-28 00:14:00,42.8,40.8,30.13,East,91,7.5,12.0,92,0.00,,,0.00,VWS V14.01,2013-01-28 05:14:00,
2013-01-28 00:19:00,42.9,40.8,30.13,SE,141,4.5,7.5,92,0.00,,,0.00,VWS V14.01,2013-01-28 05:19:00,
2013-01-28 00:24:00,43.1,41.0,30.13,SSW,206,7.5,7.5,92,0.00,,,0.00,VWS V14.01,2013-01-28 05:24:00,
2013-01-28 00:29:00,43.4,41.3,30.14,WSW,240,7.5,9.0,92,0.01,,,0.01,VWS V14.01,2013-01-28 05:29:00,
2013-01-28 00:34:00,43.7,41.3,30.13,WSW,240,4.5,4.5,91,0.01,,,0.01,VWS V14.01,2013-01-28 05:34:00,
2013-01-28 00:39:00,44.0,41.7,30.13,South,189,7.5,7.5,91,0.01,,,0.01,VWS V14.01,2013-01-28 05:39:00,
2013-01-28 00:44:00,44.1,41.8,30.13,WSW,246,6.0,10.5,91,0.01,,,0.01,VWS V14.01,2013-01-28 05:44:00,
2013-01-28 00:49:00,44.2,41.8,30.13,SE,137,1.5,3.0,91,0.01,,,0.01,VWS V14.01,2013-01-28 05:49:00,
2013-01-28 00:54:00,44.2,41.8,30.12,SSW,203,6.0,6.0,91,0.01,,,0.01,VWS V14.01,2013-01-28 05:54:00,
2013-01-28 00:59:00,44.4,42.0,30.12,WSW,247,6.0,10.5,91,0.01,,,0.01,VWS V14.01,2013-01-28 05:59:00,
2013-01-28 01:04:00,44.8,42.4,30.13,SSW,212,10.5,10.5,91,0.01,,,0.01,VWS V14.01,2013-01-28 06:04:00,
2013-01-28 01:09:00,45.0,42.3,30.12,SW,235,4.5,9.0,90,0.01,,,0.01,VWS V14.01,2013-01-28 06:09:00,
2013-01-28 01:14:00,45.3,42.6,30.12,WSW,246,7.5,9.0,90,0.02,,,0.02,VWS V14.01,2013-01-28 06:14:00,
2013-01-28 01:19:00,45.4,42.7,30.13,WNW,288,7.5,10.5,90,0.02,,,0.02,VWS V14.01,2013-01-28 06:19:00,
2013-01-28 01:24:00,45.6,42.9,30.13,SW,220,7.5,7.5,90,0.02,,,0.02,VWS V14.01,2013-01-28 06:24:00,
2013-01-28 01:29:00,45.9,43.2,30.12,SSW,212,9.0,9.0,90,0.01,,,0.02,VWS V14.01,2013-01-28 06:29:00,
2013-01-28 01:34:00,46.0,43.0,30.12,SSW,199,10.5,13.5,89,0.02,,,0.03,VWS V14.01,2013-01-28 06:34:00,
2013-01-28 01:39:00,45.9,42.9,30.12,SW,219,12.0,12.0,89,0.02,,,0.03,VWS V14.01,2013-01-28 06:39:00,
2013-01-28 01:44:00,46.0,43.0,30.12,SW,223,12.0,16.5,89,0.02,,,0.03,VWS V14.01,2013-01-28 06:44:00,
2013-01-28 01:49:00,46.2,43.2,30.12,South,182,9.0,9.0,89,0.02,,,0.03,VWS V14.01,2013-01-28 06:49:00,
2013-01-28 01:54:00,46.3,43.3,30.12,WSW,240,3.0,6.0,89,0.02,,,0.03,VWS V14.01,2013-01-28 06:54:00,
2013-01-28 01:59:00,46.3,43.3,30.12,SW,226,7.5,10.5,89,0.02,,,0.03,VWS V14.01,2013-01-28 06:59:00,
2013-01-28 02:04:00,46.2,43.2,30.13,SSW,200,6.0,7.5,89,0.02,,,0.03,VWS V14.01,2013-01-28 07:04:00,
2013-01-28 02:09:00,46.3,43.3,30.12,SSW,195,7.5,7.5,89,0.02,,,0.03,VWS V14.01,2013-01-28 07:09:00,
2013-01-28 02:14:00,46.5,43.5,30.13,SSW,203,7.5,7.5,89,0.02,,,0.03,VWS V14.01,2013-01-28 07:14:00,
2013-01-28 02:19:00,46.7,43.4,30.13,WNW,296,3.0,4.5,88,0.01,,,0.03,VWS V14.01,2013-01-28 07:19:00,
2013-01-28 02:24:00,46.9,43.6,30.14,WSW,247,7.5,9.0,88,0.01,,,0.03,VWS V14.01,2013-01-28 07:24:00,
2013-01-28 02:29:00,46.9,43.6,30.14,SSW,212,7.5,7.5,88,0.01,,,0.03,VWS V14.01,2013-01-28 07:29:00,
2013-01-28 02:34:00,46.8,43.5,30.14,South,189,6.0,7.5,88,0.00,,,0.03,VWS V14.01,2013-01-28 07:34:00,
2013-01-28 02:39:00,46.6,43.3,30.14,WSW,248,3.0,3.0,88,0.00,,,0.03,VWS V14.01,2013-01-28 07:39:00,
2013-01-28 02:44:00,46.4,43.1,30.14,SW,214,1.5,1.5,88,0.00,,,0.03,VWS V14.01,2013-01-28 07:44:00,
2013-01-28 02:49:00,46.0,42.7,30.14,SW,233,3.0,3.0,88,0.00,,,0.03,VWS V14.01,2013-01-28 07:49:00,
2013-01-28 02:54:00,45.8,42.8,30.14,SSW,199,3.0,3.0,89,0.00,,,0.03,VWS V14.01,2013-01-28 07:54:00,
2013-01-28 02:59:00,45.6,42.6,30.14,SSW,207,4.5,4.5,89,0.00,,,0.03,VWS V14.01,2013-01-28 07:59:00,
2013-01-28 03:04:00,45.4,42.4,30.14,SSW,213,6.0,7.5,89,0.00,,,0.03,VWS V14.01,2013-01-28 08:04:00,
2013-01-28 03:09:00,45.5,42.5,30.14,SSW,192,3.0,3.0,89,0.00,,,0.03,VWS V14.01,2013-01-28 08:09:00,
2013-01-28 03:14:00,45.5,42.5,30.14,SSE,158,6.0,6.0,89,0.00,,,0.03,VWS V14.01,2013-01-28 08:14:00,
2013-01-28 03:19:00,45.5,42.5,30.14,SSW,198,3.0,4.5,89,0.00,,,0.03,VWS V14.01,2013-01-28 08:19:00,
2013-01-28 03:24:00,45.3,42.3,30.13,SSW,195,1.5,3.0,89,0.00,,,0.03,VWS V14.01,2013-01-28 08:24:00,
2013-01-28 03:29:00,45.0,42.0,30.13,South,189,1.5,1.5,89,0.00,,,0.03,VWS V14.01,2013-01-28 08:29:00,
2013-01-28 03:34:00,44.7,41.7,30.13,South,182,3.0,3.0,89,0.00,,,0.03,VWS V14.01,2013-01-28 08:34:00,
2013-01-28 03:39:00,44.5,41.8,30.13,SW,214,1.5,3.0,90,0.00,,,0.03,VWS V14.01,2013-01-28 08:39:00,
2013-01-28 03:44:00,44.3,41.6,30.13,SW,226,1.5,3.0,90,0.00,,,0.03,VWS V14.01,2013-01-28 08:44:00,
2013-01-28 03:49:00,44.3,41.6,30.13,SW,221,3.0,4.5,90,0.00,,,0.03,VWS V14.01,2013-01-28 08:49:00,
2013-01-28 03:54:00,44.3,41.6,30.13,SSW,203,3.0,7.5,90,0.00,,,0.03,VWS V14.01,2013-01-28 08:54:00,
2013-01-28 03:59:00,44.2,41.2,30.13,SW,219,1.5,4.5,89,0.00,,,0.03,VWS V14.01,2013-01-28 08:59:00,
2013-01-28 04:04:00,44.1,41.5,30.13,SSE,155,1.5,4.5,90,0.00,,,0.03,VWS V14.01,2013-01-28 09:04:00,
2013-01-28 04:09:00,44.2,41.2,30.13,SSW,212,3.0,4.5,89,0.00,,,0.03,VWS V14.01,2013-01-28 09:09:00,
2013-01-28 04:14:00,44.3,41.3,30.13,WSW,240,4.5,4.5,89,0.00,,,0.03,VWS V14.01,2013-01-28 09:14:00,
2013-01-28 04:19:00,44.5,41.5,30.13,WSW,243,4.5,4.5,89,0.00,,,0.03,VWS V14.01,2013-01-28 09:19:00,
2013-01-28 04:24:00,44.8,41.5,30.13,SW,231,4.5,4.5,88,0.00,,,0.03,VWS V14.01,2013-01-28 09:24:00,
2013-01-28 04:29:00,45.0,41.4,30.13,SW,228,6.0,6.0,87,0.00,,,0.03,VWS V14.01,2013-01-28 09:29:00,
2013-01-28 04:34:00,45.4,41.5,30.13,SW,214,6.0,7.5,86,0.00,,,0.03,VWS V14.01,2013-01-28 09:34:00,
2013-01-28 04:39:00,45.8,41.6,30.12,SW,236,4.5,4.5,85,0.00,,,0.03,VWS V14.01,2013-01-28 09:39:00,
2013-01-28 04:44:00,46.0,41.8,30.12,WSW,245,6.0,6.0,85,0.00,,,0.03,VWS V14.01,2013-01-28 09:44:00,
2013-01-28 04:49:00,46.3,41.7,30.12,SW,223,7.5,12.0,84,0.00,,,0.03,VWS V14.01,2013-01-28 09:49:00,
2013-01-28 04:54:00,46.5,41.6,30.12,SSE,162,6.0,9.0,83,0.00,,,0.03,VWS V14.01,2013-01-28 09:54:00,
2013-01-28 04:59:00,46.5,41.3,30.12,SW,235,12.0,12.0,82,0.00,,,0.03,VWS V14.01,2013-01-28 09:59:00,
2013-01-28 05:04:00,46.7,41.5,30.12,SSW,203,9.0,9.0,82,0.00,,,0.03,VWS V14.01,2013-01-28 10:04:00,
2013-01-28 05:09:00,46.9,41.3,30.12,SSE,168,4.5,4.5,81,0.00,,,0.03,VWS V14.01,2013-01-28 10:09:00,
2013-01-28 05:14:00,47.0,41.4,30.12,SW,228,9.0,9.0,81,0.00,,,0.03,VWS V14.01,2013-01-28 10:14:00,
2013-01-28 05:19:00,47.2,41.3,30.12,SSE,151,7.5,12.0,80,0.00,,,0.03,VWS V14.01,2013-01-28 10:19:00,
2013-01-28 05:24:00,47.3,41.4,30.12,WSW,240,18.0,18.0,80,0.00,,,0.03,VWS V14.01,2013-01-28 10:24:00,
2013-01-28 05:29:00,47.3,41.4,30.12,SW,221,7.5,9.0,80,0.00,,,0.03,VWS V14.01,2013-01-28 10:29:00,
2013-01-28 05:34:00,47.5,41.2,30.12,SW,231,7.5,13.5,79,0.00,,,0.03,VWS V14.01,2013-01-28 10:34:00,
2013-01-28 05:39:00,47.5,41.2,30.12,WSW,252,6.0,7.5,79,0.00,,,0.03,VWS V14.01,2013-01-28 10:39:00,
2013-01-28 05:44:00,47.6,41.3,30.12,WSW,250,6.0,6.0,79,0.00,,,0.03,VWS V14.01,2013-01-28 10:44:00,
2013-01-28 05:49:00,47.6,41.0,30.12,WSW,250,6.0,7.5,78,0.00,,,0.03,VWS V14.01,2013-01-28 10:49:00,
2013-01-28 05:54:00,47.7,41.1,30.12,WSW,240,10.5,15.0,78,0.00,,,0.03,VWS V14.01,2013-01-28 10:54:00,
2013-01-28 05:59:00,47.8,41.2,30.12,SSW,199,7.5,13.5,78,0.00,,,0.03,VWS V14.01,2013-01-28 10:59:00,
2013-01-28 06:04:00,47.7,41.1,30.12,WSW,251,12.0,15.0,78,0.00,,,0.03,VWS V14.01,2013-01-28 11:04:00,
2013-01-28 06:09:00,47.9,40.9,30.12,WSW,241,16.5,16.5,77,0.00,,,0.03,VWS V14.01,2013-01-28 11:09:00,
2013-01-28 06:14:00,48.0,41.0,30.12,SSW,210,12.0,13.5,77,0.00,,,0.03,VWS V14.01,2013-01-28 11:14:00,
2013-01-28 06:19:00,48.1,41.1,30.12,WSW,252,12.0,13.5,77,0.00,,,0.03,VWS V14.01,2013-01-28 11:19:00,
2013-01-28 06:24:00,48.2,40.9,30.11,West,264,7.5,16.5,76,0.00,,,0.03,VWS V14.01,2013-01-28 11:24:00,
2013-01-28 06:29:00,48.2,40.9,30.11,SW,233,9.0,9.0,76,0.00,,,0.03,VWS V14.01,2013-01-28 11:29:00,
2013-01-28 06:34:00,48.3,41.0,30.11,SW,231,7.5,9.0,76,0.00,,,0.03,VWS V14.01,2013-01-28 11:34:00,
2013-01-28 06:39:00,48.3,41.0,30.11,SW,233,7.5,18.0,76,0.00,,,0.03,VWS V14.01,2013-01-28 11:39:00,
2013-01-28 06:44:00,48.4,40.7,30.11,SW,226,7.5,15.0,75,0.00,,,0.03,VWS V14.01,2013-01-28 11:44:00,
2013-01-28 06:49:00,48.4,40.7,30.11,South,181,6.0,7.5,75,0.00,,,0.03,VWS V14.01,2013-01-28 11:49:00,
2013-01-28 06:54:00,48.5,40.8,30.11,WSW,248,7.5,15.0,75,0.00,,,0.03,VWS V14.01,2013-01-28 11:54:00,
2013-01-28 06:59:00,48.8,41.1,30.11,SSW,195,6.0,9.0,75,0.00,,,0.03,VWS V14.01,2013-01-28 11:59:00,
2013-01-28 07:04:00,48.8,40.7,30.11,SW,214,12.0,18.0,74,0.00,,,0.03,VWS V14.01,2013-01-28 12:04:00,
2013-01-28 07:09:00,48.9,40.8,30.11,SW,215,12.0,18.0,74,0.00,,,0.03,VWS V14.01,2013-01-28 12:09:00,
2013-01-28 07:14:00,48.9,41.2,30.11,WSW,251,9.0,12.0,75,0.00,,,0.03,VWS V14.01,2013-01-28 12:14:00,
2013-01-28 07:19:00,49.1,41.0,30.11,WSW,243,10.5,13.5,74,0.00,,,0.03,VWS V14.01,2013-01-28 12:19:00,
2013-01-28 07:24:00,49.2,41.1,30.11,WSW,258,13.5,13.5,74,0.00,,,0.03,VWS V14.01,2013-01-28 12:24:00,
2013-01-28 07:29:00,49.2,41.1,30.10,SSW,200,6.0,9.0,74,0.00,,,0.03,VWS V14.01,2013-01-28 12:29:00,
2013-01-28 07:34:00,49.3,41.2,30.10,SSW,209,7.5,10.5,74,0.00,,,0.03,VWS V14.01,2013-01-28 12:34:00,
2013-01-28 07:39:00,49.4,40.9,30.10,South,188,7.5,13.5,72,0.00,,,0.03,VWS V14.01,2013-01-28 12:39:00,
2013-01-28 07:44:00,49.5,41.0,30.09,SSW,198,12.0,12.0,72,0.00,,,0.03,VWS V14.01,2013-01-28 12:44:00,
2013-01-28 07:49:00,49.5,41.4,30.09,SW,222,18.0,18.0,74,0.00,,,0.03,VWS V14.01,2013-01-28 12:49:00,
2013-01-28 07:54:00,49.6,41.1,30.10,WSW,240,12.0,12.0,72,0.00,,,0.03,VWS V14.01,2013-01-28 12:54:00,
2013-01-28 07:59:00,49.8,41.3,30.10,WSW,242,18.0,22.5,72,0.00,,,0.03,VWS V14.01,2013-01-28 12:59:00,
2013-01-28 08:04:00,50.0,41.5,30.10,WSW,245,18.0,24.0,72,0.00,,,0.03,VWS V14.01,2013-01-28 13:04:00,
2013-01-28 08:09:00,50.1,41.6,30.10,WSW,250,19.5,19.5,72,0.00,,,0.03,VWS V14.01,2013-01-28 13:09:00,
2013-01-28 08:14:00,50.2,41.7,30.10,SW,235,16.5,18.0,72,0.00,,,0.03,VWS V14.01,2013-01-28 13:14:00,
2013-01-28 08:19:00,50.3,41.8,30.10,WSW,241,21.0,21.0,72,0.00,,,0.03,VWS V14.01,2013-01-28 13:19:00,
2013-01-28 08:24:00,50.4,41.9,30.10,WSW,240,15.0,19.5,72,0.00,,,0.03,VWS V14.01,2013-01-28 13:24:00,
2013-01-28 08:29:00,50.4,41.9,30.10,WSW,240,13.5,13.5,72,0.00,,,0.03,VWS V14.01,2013-01-28 13:29:00,
2013-01-28 08:34:00,50.6,42.1,30.10,SW,226,12.0,12.0,72,0.00,,,0.03,VWS V14.01,2013-01-28 13:34:00,
2013-01-28 08:39:00,50.6,42.1,30.10,SW,233,16.5,16.5,72,0.00,,,0.03,VWS V14.01,2013-01-28 13:39:00,
2013-01-28 08:44:00,50.7,42.2,30.10,SW,223,10.5,10.5,72,0.00,,,0.03,VWS V14.01,2013-01-28 13:44:00,
2013-01-28 08:49:00,51.0,42.5,30.10,SSW,200,6.0,7.5,72,0.00,,,0.03,VWS V14.01,2013-01-28 13:49:00,
2013-01-28 08:54:00,51.1,42.6,30.09,SSW,198,13.5,19.5,72,0.00,,,0.03,VWS V14.01,2013-01-28 13:54:00,
2013-01-28 08:59:00,51.1,42.6,30.10,WSW,240,10.5,10.5,72,0.00,,,0.03,VWS V14.01,2013-01-28 13:59:00,
2013-01-28 09:04:00,51.2,43.0,30.09,SW,236,12.0,16.5,74,0.00,,,0.03,VWS V14.01,2013-01-28 14:04:00,
2013-01-28 09:09:00,51.4,43.2,30.09,South,171,10.5,22.5,74,0.00,,,0.03,VWS V14.01,2013-01-28 14:09:00,
2013-01-28 09:14:00,51.7,43.1,30.09,SW,223,19.5,22.5,72,0.00,,,0.03,VWS V14.01,2013-01-28 14:14:00,
2013-01-28 09:19:00,51.9,43.3,30.09,SSW,206,10.5,25.5,72,0.00,,,0.03,VWS V14.01,2013-01-28 14:19:00,
2013-01-28 09:24:00,52.1,43.5,30.09,SW,219,24.0,24.0,72,0.00,,,0.03,VWS V14.01,2013-01-28 14:24:00,
2013-01-28 09:29:00,52.3,43.7,30.09,SW,217,21.0,21.0,72,0.00,,,0.03,VWS V14.01,2013-01-28 14:29:00,
2013-01-28 09:34:00,52.8,44.2,30.09,SW,233,10.5,21.0,72,0.00,,,0.03,VWS V14.01,2013-01-28 14:34:00,
2013-01-28 09:39:00,53.1,44.5,30.09,SW,236,13.5,19.5,72,0.00,,,0.03,VWS V14.01,2013-01-28 14:39:00,
2013-01-28 09:44:00,53.3,44.3,30.09,SW,223,15.0,21.0,71,0.00,,,0.03,VWS V14.01,2013-01-28 14:44:00,
2013-01-28 09:49:00,53.2,44.6,30.09,SW,216,16.5,19.5,72,0.00,,,0.03,VWS V14.01,2013-01-28 14:49:00,
2013-01-28 09:54:00,53.1,44.5,30.08,WSW,240,13.5,22.5,72,0.00,,,0.03,VWS V14.01,2013-01-28 14:54:00,
2013-01-28 09:59:00,53.2,45.0,30.08,WSW,246,19.5,22.5,74,0.00,,,0.03,VWS V14.01,2013-01-28 14:59:00,
2013-01-28 10:04:00,53.3,45.1,30.08,SSW,213,6.0,13.5,74,0.00,,,0.03,VWS V14.01,2013-01-28 15:04:00,
2013-01-28 10:09:00,53.5,45.2,30.08,WSW,251,16.5,16.5,74,0.00,,,0.03,VWS V14.01,2013-01-28 15:09:00,
2013-01-28 10:14:00,53.7,45.1,30.08,SW,228,4.5,18.0,72,0.00,,,0.03,VWS V14.01,2013-01-28 15:14:00,
2013-01-28 10:19:00,54.2,45.9,30.07,SW,216,18.0,28.5,74,0.00,,,0.03,VWS V14.01,2013-01-28 15:19:00,
2013-01-28 10:24:00,54.6,46.3,30.08,WSW,243,7.5,21.0,74,0.00,,,0.03,VWS V14.01,2013-01-28 15:24:00,
2013-01-28 10:29:00,54.7,46.0,30.08,WSW,257,7.5,19.5,72,0.00,,,0.03,VWS V14.01,2013-01-28 15:29:00,
2013-01-28 10:34:00,54.8,46.1,30.08,SW,217,18.0,25.5,72,0.00,,,0.03,VWS V14.01,2013-01-28 15:34:00,
2013-01-28 10:39:00,54.9,46.6,30.08,SW,236,13.5,21.0,74,0.00,,,0.03,VWS V14.01,2013-01-28 15:39:00,
2013-01-28 10:44:00,55.0,46.7,30.08,SSW,198,12.0,21.0,74,0.00,,,0.03,VWS V14.01,2013-01-28 15:44:00,
2013-01-28 10:49:00,55.3,47.0,30.08,WSW,254,9.0,18.0,74,0.00,,,0.03,VWS V14.01,2013-01-28 15:49:00,
2013-01-28 10:54:00,55.3,46.6,30.09,WSW,240,19.5,27.0,72,0.00,,,0.03,VWS V14.01,2013-01-28 15:54:00,
2013-01-28 10:58:00,55.3,47.0,30.09,WSW,238,9.0,18.0,74,0.00,,,0.03,VWS V14.01,2013-01-28 15:58:00,
2013-01-28 11:03:00,55.2,46.9,30.09,SW,233,22.5,22.5,74,0.00,,,0.03,VWS V14.01,2013-01-28 16:03:00,
2013-01-28 11:08:00,55.0,47.1,30.09,WSW,245,15.0,18.0,75,0.00,,,0.03,VWS V14.01,2013-01-28 16:08:00,
2013-01-28 11:13:00,54.6,47.4,30.09,SW,233,16.5,16.5,77,0.00,,,0.03,VWS V14.01,2013-01-28 16:13:00,
2013-01-28 11:18:00,54.1,48.0,30.09,SW,228,12.0,19.5,80,0.00,,,0.03,VWS V14.01,2013-01-28 16:18:00,
2013-01-28 11:23:00,53.6,48.2,30.09,South,184,16.5,19.5,82,0.00,,,0.03,VWS V14.01,2013-01-28 16:23:00,
2013-01-28 11:28:00,53.2,48.2,30.09,SW,217,21.0,27.0,83,0.00,,,0.03,VWS V14.01,2013-01-28 16:28:00,
2013-01-28 11:33:00,52.9,48.2,30.09,SW,234,9.0,16.5,84,0.01,,,0.04,VWS V14.01,2013-01-28 16:33:00,
2013-01-28 11:38:00,52.6,48.2,30.09,WSW,250,4.5,15.0,85,0.02,,,0.05,VWS V14.01,2013-01-28 16:38:00,
2013-01-28 11:43:00,52.5,48.5,30.09,SW,223,13.5,13.5,86,0.02,,,0.05,VWS V14.01,2013-01-28 16:43:00,
2013-01-28 11:48:00,52.4,48.4,30.09,WSW,250,10.5,19.5,86,0.02,,,0.05,VWS V14.01,2013-01-28 16:48:00,
2013-01-28 11:53:00,52.4,48.4,30.09,WSW,251,15.0,16.5,86,0.02,,,0.05,VWS V14.01,2013-01-28 16:53:00,
2013-01-28 11:58:00,52.6,48.6,30.09,WSW,238,13.5,19.5,86,0.02,,,0.05,VWS V14.01,2013-01-28 16:58:00,
2013-01-28 12:03:00,52.5,48.5,30.09,SW,223,13.5,22.5,86,0.02,,,0.05,VWS V14.01,2013-01-28 17:03:00,
2013-01-28 12:08:00,52.5,48.8,30.09,SW,217,15.0,19.5,87,0.03,,,0.06,VWS V14.01,2013-01-28 17:08:00,
2013-01-28 12:13:00,52.2,48.8,30.08,WSW,243,7.5,18.0,88,0.03,,,0.06,VWS V14.01,2013-01-28 17:13:00,
2013-01-28 12:18:00,52.1,49.0,30.08,SW,221,19.5,19.5,89,0.03,,,0.06,VWS V14.01,2013-01-28 17:18:00,
2013-01-28 12:23:00,52.0,48.9,30.08,WSW,245,6.0,7.5,89,0.04,,,0.07,VWS V14.01,2013-01-28 17:23:00,
2013-01-28 12:28:00,51.8,49.0,30.08,WSW,247,9.0,12.0,90,0.04,,,0.07,VWS V14.01,2013-01-28 17:28:00,
2013-01-28 12:33:00,51.6,49.2,30.08,SW,226,12.0,19.5,91,0.04,,,0.07,VWS V14.01,2013-01-28 17:33:00,
2013-01-28 12:38:00,51.4,49.0,30.07,SW,217,9.0,12.0,91,0.02,,,0.07,VWS V14.01,2013-01-28 17:38:00,
2013-01-28 12:43:00,51.4,49.3,30.07,West,265,13.5,19.5,92,0.02,,,0.07,VWS V14.01,2013-01-28 17:43:00,
2013-01-28 12:48:00,51.4,49.3,30.07,WSW,254,7.5,9.0,92,0.02,,,0.07,VWS V14.01,2013-01-28 17:48:00,
2013-01-28 12:53:00,51.4,49.3,30.07,SSW,206,9.0,12.0,92,0.03,,,0.08,VWS V14.01,2013-01-28 17:53:00,
2013-01-28 12:58:00,51.4,49.3,30.07,SW,228,12.0,15.0,92,0.03,,,0.08,VWS V14.01,2013-01-28 17:58:00,
2013-01-28 13:03:00,51.5,49.4,30.07,SSW,205,3.0,12.0,92,0.03,,,0.08,VWS V14.01,2013-01-28 18:03:00,
2013-01-28 13:08:00,51.5,49.7,30.06,WSW,250,12.0,12.0,93,0.02,,,0.08,VWS V14.01,2013-01-28 18:08:00,
2013-01-28 13:13:00,51.5,49.7,30.06,WSW,240,10.5,16.5,93,0.02,,,0.08,VWS V14.01,2013-01-28 18:13:00,
2013-01-28 13:18:00,51.6,49.8,30.06,WSW,248,15.0,16.5,93,0.02,,,0.08,VWS V14.01,2013-01-28 18:18:00,
2013-01-28 13:23:00,51.8,50.0,30.06,WSW,247,10.5,10.5,93,0.02,,,0.08,VWS V14.01,2013-01-28 18:23:00,
2013-01-28 13:28:00,51.8,50.0,30.06,West,267,7.5,10.5,93,0.01,,,0.08,VWS V14.01,2013-01-28 18:28:00,
2013-01-28 13:33:00,51.9,50.1,30.06,WSW,246,10.5,16.5,93,0.01,,,0.08,VWS V14.01,2013-01-28 18:33:00,
2013-01-28 13:38:00,52.1,50.3,30.05,WSW,250,12.0,16.5,93,0.01,,,0.08,VWS V14.01,2013-01-28 18:38:00,
2013-01-28 13:43:00,52.3,50.2,30.05,SSW,209,10.5,10.5,92,0.01,,,0.08,VWS V14.01,2013-01-28 18:43:00,
2013-01-28 13:48:00,52.4,50.3,30.04,WSW,245,13.5,16.5,92,0.01,,,0.08,VWS V14.01,2013-01-28 18:48:00,
2013-01-28 13:53:00,52.4,50.3,30.04,WSW,247,15.0,16.5,92,0.00,,,0.08,VWS V14.01,2013-01-28 18:53:00,
2013-01-28 13:58:00,52.4,50.3,30.04,SSW,209,15.0,18.0,92,0.00,,,0.08,VWS V14.01,2013-01-28 18:58:00,
2013-01-28 14:03:00,52.5,50.4,30.04,WSW,252,7.5,13.5,92,0.00,,,0.08,VWS V14.01,2013-01-28 19:03:00,
2013-01-28 14:08:00,52.5,50.4,30.04,WSW,247,18.0,18.0,92,0.00,,,0.08,VWS V14.01,2013-01-28 19:08:00,
2013-01-28 14:13:00,52.6,50.2,30.04,SW,224,6.0,15.0,91,0.00,,,0.08,VWS V14.01,2013-01-28 19:13:00,
2013-01-28 14:18:00,52.5,50.1,30.04,WSW,254,12.0,15.0,91,0.01,,,0.09,VWS V14.01,2013-01-28 19:18:00,
2013-01-28 14:23:00,52.5,50.1,30.04,SW,231,6.0,7.5,91,0.01,,,0.09,VWS V14.01,2013-01-28 19:23:00,
2013-01-28 14:28:00,52.4,50.3,30.03,SW,228,12.0,18.0,92,0.01,,,0.09,VWS V14.01,2013-01-28 19:28:00,
2013-01-28 14:33:00,52.4,50.3,30.04,SW,236,13.5,16.5,92,0.01,,,0.09,VWS V14.01,2013-01-28 19:33:00,
2013-01-28 14:38:00,52.3,50.2,30.03,WSW,245,15.0,16.5,92,0.01,,,0.09,VWS V14.01,2013-01-28 19:38:00,
2013-01-28 14:43:00,52.3,50.2,30.03,SW,226,15.0,18.0,92,0.01,,,0.09,VWS V14.01,2013-01-28 19:43:00,
2013-01-28 14:48:00,52.2,50.1,30.03,SW,233,15.0,18.0,92,0.01,,,0.09,VWS V14.01,2013-01-28 19:48:00,
2013-01-28 14:53:00,52.2,50.4,30.03,WSW,245,6.0,10.5,93,0.01,,,0.09,VWS V14.01,2013-01-28 19:53:00,
2013-01-28 14:58:00,52.2,50.4,30.03,SW,228,13.5,13.5,93,0.01,,,0.09,VWS V14.01,2013-01-28 19:58:00,
2013-01-28 15:03:00,52.2,50.4,30.03,WSW,240,6.0,10.5,93,0.01,,,0.09,VWS V14.01,2013-01-28 20:03:00,
2013-01-28 15:08:00,52.1,50.3,30.03,South,179,10.5,16.5,93,0.01,,,0.09,VWS V14.01,2013-01-28 20:08:00,
2013-01-28 15:13:00,52.1,50.3,30.03,SSW,205,7.5,7.5,93,0.01,,,0.09,VWS V14.01,2013-01-28 20:13:00,
2013-01-28 15:18:00,52.1,50.3,30.03,SW,225,6.0,7.5,93,0.00,,,0.09,VWS V14.01,2013-01-28 20:18:00,
2013-01-28 15:23:00,52.1,50.3,30.03,SW,234,13.5,13.5,93,0.00,,,0.09,VWS V14.01,2013-01-28 20:23:00,
2013-01-28 15:28:00,52.2,50.4,30.03,West,261,6.0,12.0,93,0.00,,,0.09,VWS V14.01,2013-01-28 20:28:00,
2013-01-28 15:33:00,52.3,50.5,30.03,SW,214,15.0,15.0,93,0.00,,,0.09,VWS V14.01,2013-01-28 20:33:00,
2013-01-28 15:38:00,52.4,50.6,30.03,SSW,195,6.0,10.5,93,0.00,,,0.09,VWS V14.01,2013-01-28 20:38:00,
2013-01-28 15:43:00,52.5,50.4,30.03,WSW,258,7.5,7.5,92,0.00,,,0.09,VWS V14.01,2013-01-28 20:43:00,
2013-01-28 15:48:00,52.5,50.4,30.03,SW,236,9.0,16.5,92,0.00,,,0.09,VWS V14.01,2013-01-28 20:48:00,
2013-01-28 15:53:00,52.7,50.6,30.03,SW,228,9.0,12.0,92,0.00,,,0.09,VWS V14.01,2013-01-28 20:53:00,
2013-01-28 15:58:00,52.8,50.7,30.03,SSW,212,6.0,9.0,92,0.00,,,0.09,VWS V14.01,2013-01-28 20:58:00,
2013-01-28 16:03:00,52.8,50.7,30.03,WSW,257,9.0,12.0,92,0.00,,,0.09,VWS V14.01,2013-01-28 21:03:00,
2013-01-28 16:08:00,52.9,50.8,30.03,WSW,243,13.5,13.5,92,0.00,,,0.09,VWS V14.01,2013-01-28 21:08:00,
2013-01-28 16:13:00,53.0,50.9,30.03,SSW,195,6.0,7.5,92,0.00,,,0.09,VWS V14.01,2013-01-28 21:13:00,
2013-01-28 16:18:00,53.0,50.9,30.03,SSW,205,4.5,7.5,92,0.00,,,0.09,VWS V14.01,2013-01-28 21:18:00,
2013-01-28 16:23:00,52.9,50.8,30.03,SSW,203,6.0,9.0,92,0.00,,,0.09,VWS V14.01,2013-01-28 21:23:00,
2013-01-28 16:28:00,53.0,50.9,30.03,SW,233,10.5,12.0,92,0.00,,,0.09,VWS V14.01,2013-01-28 21:28:00,
2013-01-28 16:33:00,53.0,50.9,30.03,SSW,195,9.0,9.0,92,0.00,,,0.09,VWS V14.01,2013-01-28 21:33:00,
2013-01-28 16:38:00,53.0,50.9,30.03,SW,226,6.0,6.0,92,0.00,,,0.09,VWS V14.01,2013-01-28 21:38:00,
2013-01-28 16:43:00,53.0,50.9,30.04,SSE,148,7.5,7.5,92,0.03,,,0.12,VWS V14.01,2013-01-28 21:43:00,
2013-01-28 16:48:00,53.0,50.9,30.03,SW,226,12.0,13.5,92,0.04,,,0.13,VWS V14.01,2013-01-28 21:48:00,
2013-01-28 16:53:00,53.0,50.9,30.04,SW,223,7.5,7.5,92,0.04,,,0.13,VWS V14.01,2013-01-28 21:53:00,
2013-01-28 16:58:00,53.0,51.2,30.03,SW,226,7.5,9.0,93,0.04,,,0.13,VWS V14.01,2013-01-28 21:58:00,
2013-01-28 17:03:00,53.0,51.2,30.04,WSW,244,13.5,13.5,93,0.04,,,0.13,VWS V14.01,2013-01-28 22:03:00,
2013-01-28 17:08:00,53.0,51.2,30.04,WSW,244,15.0,15.0,93,0.04,,,0.13,VWS V14.01,2013-01-28 22:08:00,
2013-01-28 17:13:00,53.0,51.2,30.04,SW,220,7.5,7.5,93,0.04,,,0.13,VWS V14.01,2013-01-28 22:13:00,
2013-01-28 17:18:00,53.1,51.3,30.04,WSW,248,10.5,13.5,93,0.04,,,0.13,VWS V14.01,2013-01-28 22:18:00,
2013-01-28 17:23:00,53.1,51.3,30.04,SSW,213,7.5,10.5,93,0.04,,,0.13,VWS V14.01,2013-01-28 22:23:00,
2013-01-28 17:28:00,53.1,51.3,30.04,WSW,238,9.0,9.0,93,0.04,,,0.13,VWS V14.01,2013-01-28 22:28:00,
2013-01-28 17:33:00,53.1,51.3,30.04,WSW,244,12.0,15.0,93,0.04,,,0.13,VWS V14.01,2013-01-28 22:33:00,
2013-01-28 17:38:00,53.1,51.3,30.04,SW,217,7.5,13.5,93,0.04,,,0.13,VWS V14.01,2013-01-28 22:38:00,
2013-01-28 17:43:00,53.2,51.4,30.04,SW,230,6.0,12.0,93,0.01,,,0.13,VWS V14.01,2013-01-28 22:43:00,
2013-01-28 17:48:00,53.3,51.5,30.04,SW,226,7.5,12.0,93,0.00,,,0.13,VWS V14.01,2013-01-28 22:48:00,
2013-01-28 17:53:00,53.3,51.5,30.04,WSW,245,9.0,9.0,93,0.00,,,0.13,VWS V14.01,2013-01-28 22:53:00,
2013-01-28 17:58:00,53.2,51.4,30.04,SW,217,4.5,12.0,93,0.01,,,0.14,VWS V14.01,2013-01-28 22:58:00,
2013-01-28 18:03:00,53.1,51.3,30.04,SSW,203,3.0,6.0,93,0.02,,,0.15,VWS V14.01,2013-01-28 23:03:00,
2013-01-28 18:08:00,53.0,51.5,30.04,SW,219,4.5,4.5,94,0.02,,,0.15,VWS V14.01,2013-01-28 23:08:00,
2013-01-28 18:13:00,53.0,51.5,30.04,WSW,245,4.5,6.0,94,0.03,,,0.16,VWS V14.01,2013-01-28 23:13:00,
2013-01-28 18:18:00,52.9,51.4,30.04,SSW,207,4.5,4.5,94,0.03,,,0.16,VWS V14.01,2013-01-28 23:18:00,
2013-01-28 18:23:00,53.0,51.5,30.04,SSW,193,4.5,6.0,94,0.03,,,0.16,VWS V14.01,2013-01-28 23:23:00,
2013-01-28 18:28:00,53.0,51.5,30.04,SW,220,3.0,7.5,94,0.03,,,0.16,VWS V14.01,2013-01-28 23:28:00,
2013-01-28 18:33:00,53.0,51.5,30.04,WSW,250,4.5,6.0,94,0.03,,,0.16,VWS V14.01,2013-01-28 23:33:00,
2013-01-28 18:38:00,53.1,51.6,30.04,SSE,161,3.0,6.0,94,0.03,,,0.16,VWS V14.01,2013-01-28 23:38:00,
2013-01-28 18:43:00,53.1,51.6,30.05,WSW,240,6.0,7.5,94,0.03,,,0.16,VWS V14.01,2013-01-28 23:43:00,
2013-01-28 18:48:00,53.2,51.7,30.05,SSW,206,6.0,6.0,94,0.03,,,0.16,VWS V14.01,2013-01-28 23:48:00,
2013-01-28 18:53:00,53.3,51.5,30.05,WSW,238,3.0,7.5,93,0.03,,,0.16,VWS V14.01,2013-01-28 23:53:00,
2013-01-28 18:58:00,53.4,51.6,30.05,SW,220,6.0,10.5,93,0.02,,,0.16,VWS V14.01,2013-01-28 23:58:00,
2013-01-28 19:03:00,53.5,51.7,30.05,SW,234,3.0,7.5,93,0.01,,,0.16,VWS V14.01,2013-01-29 00:03:00,
2013-01-28 19:08:00,53.5,51.7,30.05,SW,217,9.0,9.0,93,0.01,,,0.16,VWS V14.01,2013-01-29 00:08:00,
2013-01-28 19:13:00,53.7,51.9,30.05,WSW,241,4.5,7.5,93,0.01,,,0.16,VWS V14.01,2013-01-29 00:13:00,
2013-01-28 19:18:00,53.8,51.7,30.05,WSW,254,4.5,9.0,92,0.00,,,0.16,VWS V14.01,2013-01-29 00:18:00,
2013-01-28 19:23:00,53.9,51.8,30.05,SW,233,6.0,7.5,92,0.00,,,0.16,VWS V14.01,2013-01-29 00:23:00,
2013-01-28 19:27:00,53.9,51.8,30.05,SW,236,13.5,13.5,92,0.00,,,0.16,VWS V14.01,2013-01-29 00:27:00,
2013-01-28 19:32:00,54.0,51.8,30.05,WSW,248,7.5,7.5,92,0.00,,,0.16,VWS V14.01,2013-01-29 00:32:00,
2013-01-28 19:37:00,54.1,52.0,30.05,SSW,203,6.0,12.0,92,0.00,,,0.16,VWS V14.01,2013-01-29 00:37:00,
2013-01-28 19:42:00,54.2,52.0,30.05,SW,228,6.0,6.0,92,0.00,,,0.16,VWS V14.01,2013-01-29 00:42:00,
2013-01-28 19:48:00,54.2,52.0,30.06,SW,226,7.5,9.0,92,0.00,,,0.16,VWS V14.01,2013-01-29 00:48:00,
2013-01-28 19:53:00,54.3,51.8,30.05,SSW,212,6.0,6.0,91,0.00,,,0.16,VWS V14.01,2013-01-29 00:53:00,
2013-01-28 19:58:00,54.3,51.8,30.05,WSW,243,19.5,19.5,91,0.00,,,0.16,VWS V14.01,2013-01-29 00:58:00,
2013-01-28 20:03:00,54.4,51.9,30.05,WSW,238,12.0,13.5,91,0.00,,,0.16,VWS V14.01,2013-01-29 01:03:00,
2013-01-28 20:08:00,54.4,51.9,30.05,SW,236,9.0,9.0,91,0.00,,,0.16,VWS V14.01,2013-01-29 01:08:00,
2013-01-28 20:13:00,54.5,52.0,30.05,SW,219,4.5,9.0,91,0.00,,,0.16,VWS V14.01,2013-01-29 01:13:00,
2013-01-28 20:18:00,54.6,52.1,30.05,SW,221,9.0,9.0,91,0.00,,,0.16,VWS V14.01,2013-01-29 01:18:00,
2013-01-28 20:23:00,54.7,52.2,30.05,WSW,245,7.5,10.5,91,0.00,,,0.16,VWS V14.01,2013-01-29 01:23:00,
2013-01-28 20:28:00,54.7,52.2,30.05,SSW,210,7.5,9.0,91,0.00,,,0.16,VWS V14.01,2013-01-29 01:28:00,
2013-01-28 20:33:00,54.8,52.0,30.05,SW,217,6.0,6.0,90,0.00,,,0.16,VWS V14.01,2013-01-29 01:33:00,
2013-01-28 20:38:00,54.8,52.0,30.05,SW,226,6.0,9.0,90,0.00,,,0.16,VWS V14.01,2013-01-29 01:38:00,
2013-01-28 20:43:00,54.7,51.9,30.05,WSW,243,6.0,7.5,90,0.00,,,0.16,VWS V14.01,2013-01-29 01:43:00,
2013-01-28 20:48:00,54.7,52.2,30.05,SW,236,4.5,10.5,91,0.00,,,0.16,VWS V14.01,2013-01-29 01:48:00,
2013-01-28 20:53:00,54.8,52.3,30.05,WSW,240,6.0,6.0,91,0.00,,,0.16,VWS V14.01,2013-01-29 01:53:00,
2013-01-28 20:58:00,54.8,52.3,30.05,SW,235,4.5,7.5,91,0.00,,,0.16,VWS V14.01,2013-01-29 01:58:00,
2013-01-28 21:03:00,54.8,52.0,30.05,WSW,243,6.0,9.0,90,0.00,,,0.16,VWS V14.01,2013-01-29 02:03:00,
2013-01-28 21:08:00,54.8,52.0,30.05,West,278,7.5,10.5,90,0.00,,,0.16,VWS V14.01,2013-01-29 02:08:00,
2013-01-28 21:13:00,54.9,52.1,30.05,WSW,238,7.5,7.5,90,0.00,,,0.16,VWS V14.01,2013-01-29 02:13:00,
2013-01-28 21:18:00,55.0,52.2,30.05,SSW,205,3.0,7.5,90,0.00,,,0.16,VWS V14.01,2013-01-29 02:18:00,
2013-01-28 21:23:00,55.0,52.2,30.05,WSW,243,6.0,9.0,90,0.00,,,0.16,VWS V14.01,2013-01-29 02:23:00,
2013-01-28 21:28:00,55.0,52.2,30.05,WSW,237,10.5,10.5,90,0.00,,,0.16,VWS V14.01,2013-01-29 02:28:00,
2013-01-28 21:33:00,55.1,52.3,30.05,WSW,243,4.5,6.0,90,0.00,,,0.16,VWS V14.01,2013-01-29 02:33:00,
2013-01-28 21:38:00,55.2,52.4,30.05,WSW,251,12.0,13.5,90,0.00,,,0.16,VWS V14.01,2013-01-29 02:38:00,
2013-01-28 21:43:00,55.3,52.5,30.04,SW,217,7.5,10.5,90,0.00,,,0.16,VWS V14.01,2013-01-29 02:43:00,
2013-01-28 21:48:00,55.4,52.6,30.04,SW,223,7.5,12.0,90,0.00,,,0.16,VWS V14.01,2013-01-29 02:48:00,
2013-01-28 21:53:00,55.3,52.5,30.04,SW,217,7.5,12.0,90,0.00,,,0.16,VWS V14.01,2013-01-29 02:53:00,
2013-01-28 21:58:00,55.4,52.6,30.04,WSW,252,6.0,13.5,90,0.00,,,0.16,VWS V14.01,2013-01-29 02:58:00,
2013-01-28 22:03:00,55.4,52.6,30.04,WSW,240,7.5,9.0,90,0.00,,,0.16,VWS V14.01,2013-01-29 03:03:00,
2013-01-28 22:07:00,55.4,52.6,30.04,SW,236,6.0,7.5,90,0.00,,,0.16,VWS V14.01,2013-01-29 03:07:00,
2013-01-28 22:12:00,55.3,52.8,30.04,WSW,238,4.5,4.5,91,0.00,,,0.16,VWS V14.01,2013-01-29 03:12:00,
2013-01-28 22:17:00,55.3,52.8,30.04,WSW,246,6.0,6.0,91,0.00,,,0.16,VWS V14.01,2013-01-29 03:17:00,
2013-01-28 22:23:00,55.3,52.8,30.04,SW,225,6.0,7.5,91,0.00,,,0.16,VWS V14.01,2013-01-29 03:23:00,
2013-01-28 22:28:00,55.4,52.9,30.04,SSW,203,3.0,7.5,91,0.00,,,0.16,VWS V14.01,2013-01-29 03:28:00,
2013-01-28 22:33:00,55.4,52.6,30.04,SW,223,3.0,7.5,90,0.00,,,0.16,VWS V14.01,2013-01-29 03:33:00,
2013-01-28 22:38:00,55.4,52.6,30.04,SSW,207,6.0,7.5,90,0.00,,,0.16,VWS V14.01,2013-01-29 03:38:00,
2013-01-28 22:43:00,55.5,52.7,30.04,WSW,247,7.5,7.5,90,0.00,,,0.16,VWS V14.01,2013-01-29 03:43:00,
2013-01-28 22:48:00,55.5,52.4,30.04,SSW,207,4.5,9.0,89,0.00,,,0.16,VWS V14.01,2013-01-29 03:48:00,
2013-01-28 22:52:00,55.6,52.5,30.04,South,185,4.5,6.0,89,0.00,,,0.16,VWS V14.01,2013-01-29 03:52:00,
2013-01-28 22:57:00,55.7,52.6,30.04,SSW,212,4.5,13.5,89,0.00,,,0.16,VWS V14.01,2013-01-29 03:57:00,
2013-01-28 23:02:00,55.7,52.3,30.03,West,269,1.5,3.0,88,0.00,,,0.16,VWS V14.01,2013-01-29 04:02:00,
2013-01-28 23:07:00,55.8,52.4,30.03,WSW,241,4.5,10.5,88,0.00,,,0.16,VWS V14.01,2013-01-29 04:07:00,
2013-01-28 23:12:00,55.9,52.5,30.03,SW,231,4.5,12.0,88,0.00,,,0.16,VWS V14.01,2013-01-29 04:12:00,
2013-01-28 23:17:00,55.9,52.5,30.03,SSE,153,1.5,4.5,88,0.00,,,0.16,VWS V14.01,2013-01-29 04:17:00,
2013-01-28 23:22:00,55.9,52.1,30.03,SW,224,7.5,12.0,87,0.00,,,0.16,VWS V14.01,2013-01-29 04:22:00,
2013-01-28 23:27:00,56.0,52.2,30.04,SSW,203,7.5,12.0,87,0.00,,,0.16,VWS V14.01,2013-01-29 04:27:00,
2013-01-28 23:33:00,56.0,52.2,30.04,WSW,241,6.0,7.5,87,0.00,,,0.16,VWS V14.01,2013-01-29 04:33:00,
2013-01-28 23:38:00,56.0,52.2,30.04,SW,231,4.5,9.0,87,0.00,,,0.16,VWS V14.01,2013-01-29 04:38:00,
2013-01-28 23:42:00,56.0,52.2,30.03,SSW,199,6.0,6.0,87,0.00,,,0.16,VWS V14.01,2013-01-29 04:42:00,
2013-01-28 23:47:00,55.9,52.1,30.03,SW,226,3.0,6.0,87,0.00,,,0.16,VWS V14.01,2013-01-29 04:47:00,
2013-01-28 23:52:00,56.0,52.2,30.04,South,186,6.0,6.0,87,0.00,,,0.16,VWS V14.01,2013-01-29 04:52:00,
2013-01-28 23:57:00,56.0,52.2,30.04,SW,233,7.5,9.0,87,0.00,,,0.16,VWS V14.01,2013-01-29 04:57:00,